createdAt,value
2023-01-28T00:00:22.479Z,5.04
2023-01-28T00:03:12.635Z,5.03
2023-01-28T00:05:41.957Z,5.05
2023-01-28T00:08:11.962Z,5.03
2023-01-28T00:10:43.335Z,5.03
2023-01-28T00:13:17.090Z,4.92
2023-01-28T00:15:56.474Z,4.89
2023-01-28T00:18:30.009Z,4.85
2023-01-28T00:21:04.862Z,4.88
2023-01-28T00:23:36.735Z,4.75
2023-01-28T00:26:11.504Z,4.73
2023-01-28T00:28:42.009Z,4.77
2023-01-28T00:31:17.273Z,4.81
2023-01-28T00:33:48.327Z,4.82
2023-01-28T00:36:18.433Z,4.87
2023-01-28T00:38:59.512Z,4.92
2023-01-28T00:41:30.459Z,4.84
2023-01-28T00:43:59.997Z,4.90
2023-01-28T00:46:29.077Z,4.97
2023-01-28T00:48:58.163Z,4.99
2023-01-28T00:51:27.390Z,4.99
2023-01-28T00:53:56.432Z,4.94
2023-01-28T00:56:26.011Z,4.88
2023-01-28T00:58:55.275Z,4.91
2023-01-28T01:01:27.375Z,4.95
2023-01-28T01:04:03.408Z,4.91
2023-01-28T01:06:39.797Z,4.78
2023-01-28T01:09:12.440Z,4.74
2023-01-28T01:11:42.091Z,4.78
2023-01-28T01:14:11.441Z,4.84
2023-01-28T01:16:40.575Z,4.79
2023-01-28T01:19:10.024Z,4.77
2023-01-28T01:21:39.406Z,4.75
2023-01-28T01:24:10.116Z,4.76
2023-01-28T01:26:39.844Z,4.64
2023-01-28T01:29:10.255Z,4.61
2023-01-28T01:31:39.623Z,4.59
2023-01-28T01:34:10.422Z,4.53
2023-01-28T01:36:39.536Z,4.45
2023-01-28T01:39:12.388Z,4.43
2023-01-28T01:41:41.619Z,4.42
2023-01-28T01:44:49.304Z,4.42
2023-01-28T01:47:19.567Z,4.27
2023-01-28T01:49:48.621Z,4.31
2023-01-28T01:52:21.703Z,4.39
2023-01-28T01:54:54.888Z,4.38
2023-01-28T01:57:31.307Z,4.32
2023-01-28T02:00:06.453Z,4.29
2023-01-28T02:02:40.124Z,4.32
2023-01-28T02:05:11.894Z,4.38
2023-01-28T02:07:42.144Z,4.43
2023-01-28T02:10:12.699Z,4.50
2023-01-28T02:12:46.008Z,4.53
2023-01-28T02:15:19.494Z,4.60
2023-01-28T02:17:50.305Z,4.63
2023-01-28T02:20:57.721Z,4.65
2023-01-28T02:23:57.391Z,4.57
2023-01-28T02:27:08.637Z,4.51
2023-01-28T02:30:25.005Z,4.54
2023-01-28T02:32:58.686Z,4.50
2023-01-28T02:35:38.285Z,4.57
2023-01-28T02:38:16.035Z,4.61
2023-01-28T02:41:03.189Z,4.67
2023-01-28T02:43:46.947Z,4.66
2023-01-28T02:46:46.701Z,4.65
2023-01-28T02:49:34.290Z,4.60
2023-01-28T02:52:09.112Z,4.62
2023-01-28T02:55:11.213Z,4.66
2023-01-28T02:58:01.332Z,4.63
2023-01-28T03:00:46.708Z,4.59
2023-01-28T03:03:24.096Z,4.59
2023-01-28T03:06:07.893Z,4.60
2023-01-28T03:08:56.136Z,4.62
2023-01-28T03:11:46.220Z,4.65
2023-01-28T03:14:36.790Z,4.66
2023-01-28T03:17:31.230Z,4.64
2023-01-28T03:20:19.115Z,4.67
2023-01-28T03:23:11.634Z,4.72
2023-01-28T03:26:04.128Z,4.69
2023-01-28T03:28:55.455Z,4.68
2023-01-28T03:31:45.160Z,4.61
2023-01-28T03:34:33.685Z,4.57
2023-01-28T03:37:02.654Z,4.59
2023-01-28T03:39:32.276Z,4.63
2023-01-28T03:42:04.306Z,4.61
2023-01-28T03:44:52.221Z,4.61
2023-01-28T03:47:26.461Z,4.59
2023-01-28T03:49:57.217Z,4.63
2023-01-28T03:52:30.612Z,4.69
2023-01-28T03:55:01.268Z,4.66
2023-01-28T03:57:32.004Z,4.60
2023-01-28T04:00:01.528Z,4.63
2023-01-28T04:02:31.180Z,4.70
2023-01-28T04:05:00.391Z,4.74
2023-01-28T04:07:30.110Z,4.78
2023-01-28T04:09:59.206Z,4.79
2023-01-28T04:12:27.920Z,4.79
2023-01-28T04:14:56.803Z,4.76
2023-01-28T04:17:25.704Z,4.76
2023-01-28T04:19:54.669Z,4.82
2023-01-28T04:22:23.542Z,4.83
2023-01-28T04:24:52.450Z,4.78
2023-01-28T04:27:21.929Z,4.72
2023-01-28T04:29:51.556Z,4.66
2023-01-28T04:32:20.561Z,4.64
2023-01-28T04:34:49.535Z,4.65
2023-01-28T04:37:18.941Z,4.59
2023-01-28T04:39:48.104Z,4.53
2023-01-28T04:42:16.976Z,4.49
2023-01-28T04:44:45.662Z,4.46
2023-01-28T04:47:14.842Z,4.46
2023-01-28T04:49:43.703Z,4.51
2023-01-28T04:52:13.435Z,4.54
2023-01-28T04:54:42.804Z,4.57
2023-01-28T04:57:11.559Z,4.62
2023-01-28T04:59:40.876Z,4.65
2023-01-28T05:02:09.468Z,4.70
2023-01-28T05:04:38.749Z,4.66
2023-01-28T05:07:07.720Z,4.61
2023-01-28T05:09:37.418Z,4.61
2023-01-28T05:12:07.084Z,4.68
2023-01-28T05:14:36.327Z,4.76
2023-01-28T05:17:05.409Z,4.79
2023-01-28T05:19:34.382Z,4.79
2023-01-28T05:22:03.631Z,4.78
2023-01-28T05:24:32.794Z,4.75
2023-01-28T05:27:02.229Z,4.76
2023-01-28T05:29:31.037Z,4.75
2023-01-28T05:32:00.176Z,4.77
2023-01-28T05:34:29.011Z,4.75
2023-01-28T05:36:58.266Z,4.72
2023-01-28T05:39:27.020Z,4.72
2023-01-28T05:41:55.873Z,4.75
2023-01-28T05:44:24.608Z,4.77
2023-01-28T05:46:53.410Z,4.70
2023-01-28T05:49:22.540Z,4.66
2023-01-28T05:51:51.266Z,4.62
2023-01-28T05:54:20.093Z,4.66
2023-01-28T05:56:49.041Z,4.65
2023-01-28T05:59:18.649Z,4.66
2023-01-28T06:01:47.727Z,4.61
2023-01-28T06:04:19.188Z,4.61
2023-01-28T06:06:48.031Z,4.64
2023-01-28T06:09:16.958Z,4.61
2023-01-28T06:11:46.701Z,4.58
2023-01-28T06:14:15.691Z,4.62
2023-01-28T06:16:44.515Z,4.58
2023-01-28T06:19:14.409Z,4.60
2023-01-28T06:21:43.797Z,4.65
2023-01-28T06:24:13.410Z,4.68
2023-01-28T06:26:42.369Z,4.65
2023-01-28T06:29:11.875Z,4.63
2023-01-28T06:31:41.145Z,4.62
2023-01-28T06:34:11.177Z,4.62
2023-01-28T06:36:40.135Z,4.63
2023-01-28T06:39:08.953Z,4.61
2023-01-28T06:41:37.712Z,4.57
2023-01-28T06:44:07.069Z,4.62
2023-01-28T06:46:36.225Z,4.64
2023-01-28T06:49:05.580Z,4.69
2023-01-28T06:51:34.368Z,4.68
2023-01-28T06:54:03.645Z,4.60
2023-01-28T06:56:32.868Z,4.63
2023-01-28T06:59:03.159Z,4.69
2023-01-28T07:01:35.000Z,4.63
2023-01-28T07:04:04.893Z,4.63
2023-01-28T07:06:33.742Z,4.65
2023-01-28T07:09:03.168Z,4.66
2023-01-28T07:11:33.344Z,4.70
2023-01-28T07:14:02.423Z,4.74
2023-01-28T07:16:32.072Z,4.76
2023-01-28T07:19:01.633Z,4.72
2023-01-28T07:21:31.546Z,4.74
2023-01-28T07:24:01.311Z,4.77
2023-01-28T07:26:30.186Z,4.78
2023-01-28T07:29:02.363Z,4.87
2023-01-28T07:31:31.647Z,4.88
2023-01-28T07:34:01.436Z,4.86
2023-01-28T07:36:30.658Z,4.88
2023-01-28T07:38:59.685Z,4.88
2023-01-28T07:41:29.610Z,4.97
2023-01-28T07:44:02.490Z,5.02
2023-01-28T07:46:33.247Z,5.03
2023-01-28T07:49:03.342Z,4.97
2023-01-28T07:51:36.013Z,4.91
2023-01-28T07:54:05.712Z,5.03
2023-01-28T07:56:34.708Z,5.10
2023-01-28T07:59:07.341Z,5.09
2023-01-28T08:01:36.991Z,5.12
2023-01-28T08:04:07.651Z,5.16
2023-01-28T08:06:38.481Z,5.15
2023-01-28T08:09:09.020Z,5.21
2023-01-28T08:11:42.098Z,5.24
2023-01-28T08:14:13.121Z,5.35
2023-01-28T08:16:42.418Z,5.43
2023-01-28T08:19:13.186Z,5.50
2023-01-28T08:21:42.332Z,5.56
2023-01-28T08:24:11.736Z,5.59
2023-01-28T08:26:40.533Z,5.68
2023-01-28T08:29:09.914Z,5.73
2023-01-28T08:31:40.143Z,5.76
2023-01-28T08:34:09.623Z,5.85
2023-01-28T08:36:39.516Z,5.93
2023-01-28T08:39:09.074Z,6.03
2023-01-28T08:41:38.465Z,6.09
2023-01-28T08:44:08.341Z,6.21
2023-01-28T08:46:39.411Z,6.25
2023-01-28T08:49:11.345Z,6.39
2023-01-28T08:51:41.676Z,6.51
2023-01-28T08:54:10.760Z,6.68
2023-01-28T08:56:45.932Z,6.76
2023-01-28T08:59:15.804Z,6.82
2023-01-28T09:01:45.207Z,6.91
2023-01-28T09:04:15.459Z,7.06
2023-01-28T09:06:44.468Z,7.19
2023-01-28T09:09:13.833Z,7.23
2023-01-28T09:11:43.070Z,7.24
2023-01-28T09:14:12.527Z,7.35
2023-01-28T09:16:41.700Z,7.56
2023-01-28T09:19:11.758Z,7.84
2023-01-28T09:21:41.549Z,7.97
2023-01-28T09:24:13.929Z,8.06
2023-01-28T09:26:45.025Z,8.24
2023-01-28T09:29:15.004Z,8.38
2023-01-28T09:31:44.527Z,8.35
2023-01-28T09:34:14.212Z,8.27
2023-01-28T09:36:45.320Z,8.28
2023-01-28T09:39:15.746Z,8.42
2023-01-28T09:42:01.621Z,8.55
2023-01-28T09:44:57.228Z,8.97
2023-01-28T09:47:42.354Z,9.25
2023-01-28T09:50:21.451Z,9.49
2023-01-28T09:52:55.680Z,9.88
2023-01-28T09:55:36.780Z,10.19
2023-01-28T09:58:16.203Z,10.44
2023-01-28T10:01:11.887Z,10.80
2023-01-28T10:03:50.377Z,11.43
2023-01-28T10:06:46.022Z,11.78
2023-01-28T10:09:37.067Z,11.78
2023-01-28T10:12:25.641Z,11.67
2023-01-28T10:15:35.277Z,12.19
2023-01-28T10:18:17.653Z,12.42
2023-01-28T10:20:55.690Z,12.41
2023-01-28T10:23:28.754Z,12.66
2023-01-28T10:26:05.564Z,12.91
2023-01-28T10:28:36.367Z,13.02
2023-01-28T10:31:13.535Z,13.10
2023-01-28T10:33:44.794Z,12.86
2023-01-28T10:36:18.534Z,12.71
2023-01-28T10:38:48.386Z,12.68
2023-01-28T10:41:22.788Z,12.50
2023-01-28T10:43:52.714Z,12.40
2023-01-28T10:46:33.697Z,12.55
2023-01-28T10:49:18.945Z,12.41
2023-01-28T10:51:48.619Z,12.40
2023-01-28T10:54:26.490Z,12.46
2023-01-28T10:57:01.286Z,12.75
2023-01-28T10:59:32.318Z,13.06
2023-01-28T11:02:26.957Z,13.31
2023-01-28T11:05:09.290Z,13.20
2023-01-28T11:07:39.220Z,13.24
2023-01-28T11:10:27.134Z,13.21
2023-01-28T11:12:59.290Z,13.45
2023-01-28T11:15:30.514Z,13.56
2023-01-28T11:18:11.345Z,13.51
2023-01-28T11:20:53.867Z,13.39
2023-01-28T11:23:33.908Z,13.48
2023-01-28T11:26:10.230Z,13.20
2023-01-28T11:28:43.349Z,12.90
2023-01-28T11:31:18.528Z,12.93
2023-01-28T11:34:05.990Z,12.92
2023-01-28T11:36:36.108Z,12.93
2023-01-28T11:39:26.723Z,12.87
2023-01-28T11:41:56.063Z,12.48
2023-01-28T11:44:26.972Z,12.55
2023-01-28T11:47:14.649Z,12.98
2023-01-28T11:50:03.670Z,12.93
2023-01-28T11:53:04.401Z,12.97
2023-01-28T11:55:42.299Z,12.79
2023-01-28T11:58:27.684Z,12.66
2023-01-28T12:01:24.192Z,12.64
2023-01-28T12:04:21.898Z,12.45
2023-01-28T12:07:18.998Z,12.38
2023-01-28T12:10:12.966Z,12.21
2023-01-28T12:13:04.274Z,12.19
2023-01-28T12:15:58.143Z,11.96
2023-01-28T12:18:33.154Z,11.83
2023-01-28T12:21:09.875Z,11.80
2023-01-28T12:23:46.279Z,11.72
2023-01-28T12:26:50.239Z,11.78
2023-01-28T12:29:32.892Z,11.72
2023-01-28T12:32:41.510Z,11.75
2023-01-28T12:35:51.650Z,11.83
2023-01-28T12:38:52.744Z,12.01
2023-01-28T12:41:28.435Z,12.06
2023-01-28T12:44:09.074Z,12.23
2023-01-28T12:47:04.456Z,12.36
2023-01-28T12:50:00.752Z,12.37
2023-01-28T12:52:58.055Z,12.29
2023-01-28T12:55:39.580Z,12.45
2023-01-28T12:58:19.179Z,12.79
2023-01-28T13:00:57.634Z,13.40
2023-01-28T13:03:35.520Z,13.56
2023-01-28T13:06:19.605Z,13.89
2023-01-28T13:08:50.276Z,14.25
2023-01-28T13:11:21.050Z,16.35
2023-01-28T13:13:51.112Z,18.79
2023-01-28T13:16:28.632Z,19.81
2023-01-28T13:19:23.650Z,18.78
2023-01-28T13:21:53.055Z,18.30
2023-01-28T13:24:31.663Z,17.71
2023-01-28T13:27:12.963Z,17.27
2023-01-28T13:29:48.366Z,16.82
2023-01-28T13:32:33.918Z,16.90
2023-01-28T13:35:09.029Z,16.55
2023-01-28T13:37:47.605Z,15.65
2023-01-28T13:40:17.201Z,14.95
2023-01-28T13:43:00.195Z,14.36
2023-01-28T13:45:30.528Z,14.24
2023-01-28T13:48:25.943Z,14.47
2023-01-28T13:50:55.187Z,13.82
2023-01-28T13:53:30.629Z,13.37
2023-01-28T13:56:01.296Z,13.06
2023-01-28T13:59:03.572Z,12.93
2023-01-28T14:01:54.165Z,12.52
2023-01-28T14:04:29.235Z,12.28
2023-01-28T14:07:04.772Z,12.13
2023-01-28T14:09:43.135Z,11.91
2023-01-28T14:12:30.842Z,11.84
2023-01-28T14:15:23.996Z,11.82
2023-01-28T14:17:55.447Z,11.82
2023-01-28T14:20:33.551Z,11.70
2023-01-28T14:23:06.139Z,11.63
2023-01-28T14:25:56.191Z,11.70
2023-01-28T14:28:39.122Z,11.81
2023-01-28T14:31:27.184Z,12.05
2023-01-28T14:34:05.471Z,12.05
2023-01-28T14:36:41.700Z,11.98
2023-01-28T14:39:29.443Z,11.82
2023-01-28T14:42:01.971Z,11.77
2023-01-28T14:44:39.945Z,11.74
2023-01-28T14:47:08.884Z,11.55
2023-01-28T14:49:57.144Z,11.34
2023-01-28T14:52:35.974Z,10.94
2023-01-28T14:55:05.010Z,10.77
2023-01-28T14:57:57.880Z,10.62
2023-01-28T15:00:31.096Z,10.47
2023-01-28T15:03:00.520Z,10.42
2023-01-28T15:05:32.177Z,10.27
2023-01-28T15:08:01.583Z,10.15
2023-01-28T15:10:38.702Z,10.00
2023-01-28T15:13:13.071Z,9.81
2023-01-28T15:15:46.938Z,9.66
2023-01-28T15:18:29.889Z,9.58
2023-01-28T15:21:01.033Z,9.52
2023-01-28T15:23:37.998Z,9.53
2023-01-28T15:26:29.003Z,9.44
2023-01-28T15:28:58.492Z,9.30
2023-01-28T15:31:33.635Z,9.21
2023-01-28T15:34:15.450Z,9.13
2023-01-28T15:36:44.454Z,9.02
2023-01-28T15:39:19.417Z,8.90
2023-01-28T15:42:00.089Z,8.73
2023-01-28T15:44:33.914Z,8.99
2023-01-28T15:47:14.147Z,9.03
2023-01-28T15:49:47.209Z,8.92
2023-01-28T15:52:16.474Z,8.76
2023-01-28T15:54:51.355Z,8.59
2023-01-28T15:57:28.054Z,8.43
2023-01-28T16:00:09.435Z,8.23
2023-01-28T16:03:08.934Z,8.03
2023-01-28T16:05:40.622Z,7.82
2023-01-28T16:08:31.664Z,7.66
2023-01-28T16:11:00.900Z,7.46
2023-01-28T16:13:33.560Z,7.39
2023-01-28T16:16:05.782Z,7.32
2023-01-28T16:18:49.876Z,7.19
2023-01-28T16:21:32.788Z,7.08
2023-01-28T16:24:20.470Z,7.00
2023-01-28T16:27:01.346Z,6.84
2023-01-28T16:29:31.904Z,6.70
2023-01-28T16:32:01.468Z,6.62
2023-01-28T16:34:30.813Z,6.56
2023-01-28T16:37:00.913Z,6.50
2023-01-28T16:39:30.941Z,6.43
2023-01-28T16:42:00.268Z,6.34
2023-01-28T16:44:29.755Z,6.28
2023-01-28T16:46:59.575Z,6.18
2023-01-28T16:49:28.623Z,6.09
2023-01-28T16:51:57.813Z,6.02
2023-01-28T16:54:29.212Z,5.92
2023-01-28T16:56:59.383Z,5.82
2023-01-28T16:59:29.077Z,5.79
2023-01-28T17:01:59.085Z,5.75
2023-01-28T17:04:27.797Z,5.69
2023-01-28T17:06:57.140Z,5.68
2023-01-28T17:09:26.635Z,5.59
2023-01-28T17:11:55.836Z,5.55
2023-01-28T17:14:25.035Z,5.47
2023-01-28T17:16:55.614Z,5.40
2023-01-28T17:19:25.618Z,5.39
2023-01-28T17:21:55.653Z,5.34
2023-01-28T17:24:25.351Z,5.26
2023-01-28T17:26:55.569Z,5.13
2023-01-28T17:29:25.777Z,5.09
2023-01-28T17:31:55.530Z,5.00
2023-01-28T17:34:25.246Z,4.90
2023-01-28T17:36:55.170Z,4.98
2023-01-28T17:39:25.758Z,5.01
2023-01-28T17:41:55.773Z,4.94
2023-01-28T17:44:25.229Z,4.81
2023-01-28T17:46:54.539Z,4.76
2023-01-28T17:49:23.807Z,4.72
2023-01-28T17:51:53.533Z,4.72
2023-01-28T17:54:25.045Z,4.67
2023-01-28T17:56:54.841Z,4.63
2023-01-28T17:59:26.124Z,4.60
2023-01-28T18:01:55.826Z,4.52
2023-01-28T18:04:25.767Z,4.46
2023-01-28T18:06:55.265Z,4.48
2023-01-28T18:09:24.488Z,4.45
2023-01-28T18:11:54.171Z,4.41
2023-01-28T18:14:23.144Z,4.36
2023-01-28T18:16:52.430Z,4.33
2023-01-28T18:19:21.525Z,4.32
2023-01-28T18:21:53.279Z,4.28
2023-01-28T18:24:25.289Z,4.21
2023-01-28T18:27:00.270Z,4.14
2023-01-28T18:29:32.005Z,4.12
2023-01-28T18:32:01.687Z,4.10
2023-01-28T18:34:32.886Z,4.06
2023-01-28T18:37:04.282Z,4.07
2023-01-28T18:39:34.343Z,4.05
2023-01-28T18:42:04.382Z,4.01
2023-01-28T18:44:33.946Z,4.00
2023-01-28T18:47:03.583Z,3.97
2023-01-28T18:49:33.427Z,3.96
2023-01-28T18:52:04.034Z,3.94
2023-01-28T18:54:33.383Z,3.96
2023-01-28T18:57:02.691Z,3.94
2023-01-28T18:59:33.451Z,3.93
2023-01-28T19:02:02.506Z,3.90
2023-01-28T19:04:31.758Z,3.84
2023-01-28T19:07:01.218Z,3.86
2023-01-28T19:09:30.139Z,3.89
2023-01-28T19:11:59.222Z,3.88
2023-01-28T19:14:28.404Z,3.89
2023-01-28T19:16:57.378Z,3.93
2023-01-28T19:19:26.375Z,3.98
2023-01-28T19:21:56.319Z,3.98
2023-01-28T19:24:26.011Z,3.96
2023-01-28T19:26:55.409Z,3.93
2023-01-28T19:29:26.146Z,3.91
2023-01-28T19:31:55.757Z,3.89
2023-01-28T19:34:25.195Z,3.91
2023-01-28T19:36:54.493Z,3.89
2023-01-28T19:39:24.112Z,3.87
2023-01-28T19:41:53.279Z,3.86
2023-01-28T19:44:23.061Z,3.86
2023-01-28T19:46:52.260Z,3.88
2023-01-28T19:49:21.471Z,3.84
2023-01-28T19:51:51.505Z,3.79
2023-01-28T19:54:20.966Z,3.77
2023-01-28T19:56:50.583Z,3.78
2023-01-28T19:59:22.740Z,3.79
2023-01-28T20:01:52.793Z,3.72
2023-01-28T20:04:22.668Z,3.66
2023-01-28T20:06:52.049Z,3.65
2023-01-28T20:09:21.440Z,3.64
2023-01-28T20:11:50.821Z,3.65
2023-01-28T20:14:21.970Z,3.63
2023-01-28T20:16:52.709Z,3.55
2023-01-28T20:19:22.840Z,3.53
2023-01-28T20:21:53.687Z,3.56
2023-01-28T20:24:23.548Z,3.59
2023-01-28T20:26:53.120Z,3.54
2023-01-28T20:29:22.865Z,3.48
2023-01-28T20:32:13.469Z,3.47
2023-01-28T20:34:44.872Z,3.42
2023-01-28T20:37:15.320Z,3.44
2023-01-28T20:39:45.283Z,3.44
2023-01-28T20:42:15.646Z,3.40
2023-01-28T20:44:46.073Z,3.38
2023-01-28T20:47:15.900Z,3.36
2023-01-28T20:49:45.549Z,3.37
2023-01-28T20:52:15.519Z,3.32
2023-01-28T20:54:45.405Z,3.26
2023-01-28T20:57:14.723Z,3.26
2023-01-28T20:59:43.953Z,3.25
2023-01-28T21:02:13.677Z,3.26
2023-01-28T21:04:44.115Z,3.26
2023-01-28T21:07:14.520Z,3.22
2023-01-28T21:09:43.729Z,3.19
2023-01-28T21:12:13.028Z,3.20
2023-01-28T21:14:42.782Z,3.23
2023-01-28T21:17:12.269Z,3.24
2023-01-28T21:19:41.495Z,3.20
2023-01-28T21:22:10.868Z,3.15
2023-01-28T21:24:41.497Z,3.15
2023-01-28T21:27:10.683Z,3.14
2023-01-28T21:29:40.041Z,3.11
2023-01-28T21:32:09.905Z,3.06
2023-01-28T21:34:41.332Z,3.01
2023-01-28T21:37:11.436Z,3.00
2023-01-28T21:39:40.887Z,3.02
2023-01-28T21:42:10.204Z,3.04
2023-01-28T21:44:39.817Z,2.99
2023-01-28T21:47:08.973Z,2.94
2023-01-28T21:49:38.176Z,2.92
2023-01-28T21:52:10.581Z,2.91
2023-01-28T21:54:40.547Z,2.92
2023-01-28T21:57:09.516Z,2.93
2023-01-28T21:59:41.047Z,2.91
2023-01-28T22:02:14.632Z,2.87
2023-01-28T22:04:47.050Z,2.86
2023-01-28T22:07:20.677Z,2.87
2023-01-28T22:09:52.842Z,2.90
2023-01-28T22:12:23.229Z,2.89
2023-01-28T22:14:52.203Z,2.84
2023-01-28T22:17:21.176Z,2.80
2023-01-28T22:19:50.565Z,2.78
2023-01-28T22:22:20.046Z,2.78
2023-01-28T22:24:48.832Z,2.80
2023-01-28T22:27:17.922Z,2.78
2023-01-28T22:29:47.292Z,2.78
2023-01-28T22:32:16.354Z,2.79
2023-01-28T22:34:46.929Z,2.82
2023-01-28T22:37:16.002Z,2.88
2023-01-28T22:39:44.863Z,2.92
2023-01-28T22:42:13.707Z,2.91
2023-01-28T22:44:42.681Z,2.89
2023-01-28T22:47:11.961Z,2.89
2023-01-28T22:49:41.480Z,2.91
2023-01-28T22:52:10.779Z,2.93
2023-01-28T22:54:40.660Z,2.92
2023-01-28T22:57:09.479Z,2.88
2023-01-28T22:59:41.937Z,2.86
2023-01-28T23:02:12.247Z,2.83
2023-01-28T23:04:41.033Z,2.85
2023-01-28T23:07:09.808Z,2.84
2023-01-28T23:09:39.022Z,2.83
2023-01-28T23:12:08.550Z,2.89
2023-01-28T23:14:56.089Z,2.90
2023-01-28T23:17:43.320Z,2.87
2023-01-28T23:20:30.927Z,2.88
2023-01-28T23:23:18.346Z,2.87
2023-01-28T23:25:49.526Z,2.88
2023-01-28T23:28:18.293Z,2.86
2023-01-28T23:30:46.876Z,2.85
2023-01-28T23:33:16.170Z,2.83
2023-01-28T23:35:45.125Z,2.80
2023-01-28T23:38:13.985Z,2.80
2023-01-28T23:40:42.976Z,2.77
2023-01-28T23:43:13.635Z,2.77
2023-01-28T23:45:43.527Z,2.77
2023-01-28T23:48:13.223Z,2.80
2023-01-28T23:50:42.817Z,2.81
2023-01-28T23:53:13.915Z,2.84
2023-01-28T23:55:43.225Z,2.85
2023-01-28T23:58:13.044Z,2.84
